createdAt,value
2023-02-22T00:00:56.494Z,2.30
2023-02-22T00:03:26.989Z,2.05
2023-02-22T00:05:59.657Z,2.75
2023-02-22T00:08:32.412Z,2.45
2023-02-22T00:11:00.744Z,2.00
2023-02-22T00:13:31.299Z,2.10
2023-02-22T00:15:59.289Z,2.88
2023-02-22T00:18:29.923Z,1.80
2023-02-22T00:21:00.660Z,2.83
2023-02-22T00:23:29.765Z,2.42
2023-02-22T00:25:58.057Z,2.00
2023-02-22T00:28:25.425Z,3.33
2023-02-22T00:30:52.699Z,2.30
2023-02-22T00:33:19.732Z,2.47
2023-02-22T00:35:46.881Z,1.95
2023-02-22T00:38:16.318Z,2.55
2023-02-22T00:40:43.130Z,1.95
2023-02-22T00:43:09.902Z,1.73
2023-02-22T00:45:37.771Z,2.85
2023-02-22T00:48:05.646Z,2.53
2023-02-22T00:50:33.463Z,2.35
2023-02-22T00:53:01.543Z,2.38
2023-02-22T00:55:30.836Z,2.15
2023-02-22T00:57:58.969Z,2.50
2023-02-22T01:00:38.181Z,1.55
2023-02-22T01:03:07.120Z,1.75
2023-02-22T01:05:35.097Z,1.80
2023-02-22T01:08:02.838Z,1.83
2023-02-22T01:10:30.992Z,1.77
2023-02-22T01:12:59.987Z,2.22
2023-02-22T01:15:30.801Z,2.45
2023-02-22T01:17:59.468Z,2.45
2023-02-22T01:20:27.465Z,1.63
2023-02-22T01:22:57.304Z,2.28
2023-02-22T01:25:26.804Z,1.63
2023-02-22T01:27:55.221Z,1.55
2023-02-22T01:30:24.964Z,2.33
2023-02-22T01:32:52.885Z,2.17
2023-02-22T01:35:23.213Z,1.88
2023-02-22T01:37:50.014Z,2.45
2023-02-22T01:40:23.756Z,1.42
2023-02-22T01:42:57.717Z,1.58
2023-02-22T01:45:30.803Z,2.25
2023-02-22T01:48:09.671Z,1.42
2023-02-22T01:50:42.440Z,1.80
2023-02-22T01:53:12.417Z,1.50
2023-02-22T01:55:39.664Z,1.23
2023-02-22T01:58:07.396Z,1.88
2023-02-22T02:00:34.653Z,1.60
2023-02-22T02:03:08.265Z,1.88
2023-02-22T02:05:36.525Z,1.65
2023-02-22T02:08:27.612Z,1.25
2023-02-22T02:10:56.567Z,1.42
2023-02-22T02:13:23.883Z,1.67
2023-02-22T02:15:55.183Z,1.60
2023-02-22T02:18:24.261Z,1.42
2023-02-22T02:21:04.179Z,1.75
2023-02-22T02:24:09.094Z,2.47
2023-02-22T02:26:53.533Z,1.75
2023-02-22T02:29:40.465Z,1.80
2023-02-22T02:32:22.542Z,1.65
2023-02-22T02:35:13.367Z,1.73
2023-02-22T02:37:58.309Z,2.00
2023-02-22T02:40:49.226Z,1.48
2023-02-22T02:46:06.884Z,1.75
2023-02-22T02:48:35.216Z,1.80
2023-02-22T02:51:05.655Z,1.50
2023-02-22T02:53:38.800Z,1.88
2023-02-22T02:56:05.949Z,2.03
2023-02-22T02:58:33.046Z,1.98
2023-02-22T03:01:04.489Z,1.45
2023-02-22T03:03:34.314Z,1.48
2023-02-22T03:06:28.329Z,1.52
2023-02-22T03:09:07.125Z,1.27
2023-02-22T03:12:01.360Z,1.33
2023-02-22T03:14:42.170Z,1.80
2023-02-22T03:17:19.076Z,1.90
2023-02-22T03:19:51.922Z,2.22
2023-02-22T03:22:21.116Z,2.20
2023-02-22T03:24:52.966Z,2.20
2023-02-22T03:27:37.140Z,2.67
2023-02-22T03:30:13.868Z,2.10
2023-02-22T03:32:46.156Z,2.33
2023-02-22T03:35:25.697Z,1.83
2023-02-22T03:37:58.206Z,2.42
2023-02-22T03:40:31.597Z,2.20
2023-02-22T03:43:16.588Z,2.45
2023-02-22T03:45:45.665Z,1.08
2023-02-22T03:48:37.991Z,1.67
2023-02-22T03:51:05.534Z,1.85
2023-02-22T03:53:34.623Z,2.42
2023-02-22T03:56:02.976Z,2.00
2023-02-22T03:58:32.303Z,1.58
2023-02-22T04:00:59.037Z,1.60
2023-02-22T04:03:25.741Z,1.90
2023-02-22T04:05:52.628Z,1.85
2023-02-22T04:08:19.707Z,1.85
2023-02-22T04:10:46.398Z,1.55
2023-02-22T04:13:14.728Z,1.67
2023-02-22T04:15:42.389Z,2.42
2023-02-22T04:18:09.146Z,1.67
2023-02-22T04:20:35.891Z,2.08
2023-02-22T04:23:02.731Z,2.25
2023-02-22T04:25:29.474Z,2.03
2023-02-22T04:27:56.288Z,2.10
2023-02-22T04:30:23.343Z,2.00
2023-02-22T04:32:50.143Z,2.65
2023-02-22T04:35:16.949Z,2.13
2023-02-22T04:37:43.676Z,2.60
2023-02-22T04:40:11.573Z,2.70
2023-02-22T04:42:39.378Z,2.60
2023-02-22T04:45:08.436Z,2.50
2023-02-22T04:47:36.166Z,1.98
2023-02-22T04:50:05.205Z,2.42
2023-02-22T04:52:31.883Z,2.30
2023-02-22T04:54:58.968Z,2.65
2023-02-22T04:57:27.125Z,2.75
2023-02-22T04:59:53.995Z,2.83
2023-02-22T05:02:20.802Z,2.63
2023-02-22T05:04:47.796Z,3.05
2023-02-22T05:07:14.801Z,2.67
2023-02-22T05:09:41.637Z,3.03
2023-02-22T05:12:08.416Z,3.33
2023-02-22T05:14:35.498Z,2.72
2023-02-22T05:17:02.992Z,3.55
2023-02-22T05:19:30.203Z,4.13
2023-02-22T05:21:56.989Z,3.15
2023-02-22T05:24:23.689Z,4.60
2023-02-22T05:26:51.377Z,3.72
2023-02-22T05:29:18.135Z,3.55
2023-02-22T05:31:44.865Z,3.95
2023-02-22T05:34:12.069Z,3.88
2023-02-22T05:36:38.770Z,3.42
2023-02-22T05:39:05.997Z,3.22
2023-02-22T05:41:32.724Z,3.67
2023-02-22T05:43:59.449Z,4.50
2023-02-22T05:46:26.253Z,4.22
2023-02-22T05:48:53.029Z,3.67
2023-02-22T05:51:19.760Z,4.30
2023-02-22T05:53:46.522Z,3.83
2023-02-22T05:56:13.288Z,3.58
2023-02-22T05:58:39.955Z,3.53
2023-02-22T06:01:06.666Z,3.33
2023-02-22T06:03:33.346Z,3.88
2023-02-22T06:06:00.011Z,3.83
2023-02-22T06:08:26.910Z,3.70
2023-02-22T06:10:54.404Z,5.07
2023-02-22T06:13:21.140Z,3.05
2023-02-22T06:15:48.033Z,3.63
2023-02-22T06:18:14.723Z,3.47
2023-02-22T06:20:41.442Z,3.40
2023-02-22T06:23:08.301Z,3.85
2023-02-22T06:25:34.972Z,4.30
2023-02-22T06:28:01.740Z,3.55
2023-02-22T06:30:29.414Z,4.00
2023-02-22T06:32:56.464Z,3.55
2023-02-22T06:35:23.616Z,4.18
2023-02-22T06:37:50.427Z,4.35
2023-02-22T06:40:17.250Z,4.03
2023-02-22T06:42:44.516Z,4.20
2023-02-22T06:45:11.598Z,4.15
2023-02-22T06:47:42.395Z,3.55
2023-02-22T06:50:21.676Z,3.90
2023-02-22T06:52:48.473Z,4.05
2023-02-22T06:55:20.533Z,3.72
2023-02-22T06:57:47.546Z,4.35
2023-02-22T07:00:17.592Z,3.58
2023-02-22T07:02:44.698Z,3.55
2023-02-22T07:05:13.100Z,3.42
2023-02-22T07:07:40.187Z,3.53
2023-02-22T07:10:09.100Z,2.85
2023-02-22T07:12:35.784Z,3.67
2023-02-22T07:15:02.493Z,3.22
2023-02-22T07:17:29.331Z,3.00
2023-02-22T07:19:56.079Z,3.28
2023-02-22T07:22:22.747Z,3.35
2023-02-22T07:24:49.513Z,3.75
2023-02-22T07:27:17.382Z,3.83
2023-02-22T07:29:44.690Z,3.78
2023-02-22T07:32:11.526Z,4.03
2023-02-22T07:34:38.364Z,4.45
2023-02-22T07:37:05.110Z,3.97
2023-02-22T07:39:32.110Z,3.10
2023-02-22T07:41:59.298Z,3.67
2023-02-22T07:44:26.330Z,4.10
2023-02-22T07:46:53.089Z,4.07
2023-02-22T07:49:19.822Z,3.70
2023-02-22T07:51:46.555Z,4.20
2023-02-22T07:54:13.467Z,4.07
2023-02-22T07:56:47.575Z,3.40
2023-02-22T07:59:15.471Z,4.80
2023-02-22T08:01:42.393Z,3.47
2023-02-22T08:04:09.180Z,3.40
2023-02-22T08:06:36.153Z,3.90
2023-02-22T08:09:03.007Z,3.67
2023-02-22T08:11:30.168Z,3.92
2023-02-22T08:13:56.973Z,3.67
2023-02-22T08:16:23.701Z,4.32
2023-02-22T08:18:50.330Z,4.25
2023-02-22T08:21:17.338Z,3.70
2023-02-22T08:23:44.241Z,2.90
2023-02-22T08:26:15.596Z,3.80
2023-02-22T08:28:43.152Z,3.00
2023-02-22T08:31:10.700Z,3.03
2023-02-22T08:33:37.567Z,3.22
2023-02-22T08:36:04.809Z,4.07
2023-02-22T08:38:33.983Z,3.72
2023-02-22T08:41:00.726Z,3.20
2023-02-22T08:43:29.054Z,3.63
2023-02-22T08:45:57.683Z,3.60
2023-02-22T08:48:24.727Z,2.85
2023-02-22T08:50:51.854Z,3.40
2023-02-22T08:53:19.090Z,2.97
2023-02-22T08:55:46.205Z,2.85
2023-02-22T08:58:13.663Z,2.28
2023-02-22T09:00:41.557Z,2.30
2023-02-22T09:03:11.855Z,2.85
2023-02-22T09:05:39.020Z,2.85
2023-02-22T09:08:05.917Z,2.75
2023-02-22T09:10:34.166Z,3.20
2023-02-22T09:13:02.434Z,3.85
2023-02-22T09:15:30.316Z,2.85
2023-02-22T09:17:57.247Z,3.22
2023-02-22T09:20:25.254Z,2.63
2023-02-22T09:22:53.756Z,3.35
2023-02-22T09:25:21.214Z,3.53
2023-02-22T09:27:54.051Z,3.22
2023-02-22T09:30:32.868Z,2.90
2023-02-22T09:33:06.426Z,3.20
2023-02-22T09:35:36.484Z,3.53
2023-02-22T09:38:06.300Z,2.95
2023-02-22T09:40:40.939Z,2.97
2023-02-22T09:43:37.622Z,2.80
2023-02-22T09:46:42.192Z,3.65
2023-02-22T09:49:27.261Z,2.55
2023-02-22T09:52:16.959Z,2.83
2023-02-22T09:54:52.960Z,2.65
2023-02-22T09:57:31.108Z,2.83
2023-02-22T10:00:16.626Z,2.83
2023-02-22T10:03:21.937Z,2.83
2023-02-22T10:05:58.934Z,2.55
2023-02-22T10:08:31.287Z,3.75
2023-02-22T10:11:21.477Z,2.55
2023-02-22T10:14:27.582Z,2.80
2023-02-22T10:17:18.599Z,2.53
2023-02-22T10:20:14.788Z,1.90
2023-02-22T10:23:07.328Z,2.47
2023-02-22T10:25:37.857Z,2.00
2023-02-22T10:28:21.078Z,2.47
2023-02-22T10:30:57.275Z,2.67
2023-02-22T10:33:29.775Z,2.33
2023-02-22T10:35:56.661Z,2.17
2023-02-22T10:38:25.369Z,2.33
2023-02-22T10:41:10.416Z,2.60
2023-02-22T10:43:38.613Z,2.35
2023-02-22T10:46:09.689Z,2.40
2023-02-22T10:48:40.156Z,2.45
2023-02-22T10:51:09.065Z,2.63
2023-02-22T10:53:38.412Z,2.22
2023-02-22T10:56:21.741Z,2.45
2023-02-22T10:59:02.262Z,2.40
2023-02-22T11:01:32.270Z,1.95
2023-02-22T11:03:58.990Z,2.28
2023-02-22T11:06:25.716Z,2.00
2023-02-22T11:09:12.330Z,2.67
2023-02-22T11:11:47.512Z,3.42
2023-02-22T11:14:29.444Z,2.50
2023-02-22T11:16:58.707Z,2.60
2023-02-22T11:19:30.927Z,2.40
2023-02-22T11:22:14.903Z,2.92
2023-02-22T11:24:50.543Z,2.58
2023-02-22T11:27:47.075Z,2.60
2023-02-22T11:32:56.432Z,2.28
2023-02-22T11:35:29.399Z,2.45
2023-02-22T11:38:22.727Z,3.05
2023-02-22T11:41:05.086Z,2.05
2023-02-22T11:43:32.205Z,2.00
2023-02-22T11:46:12.298Z,2.20
2023-02-22T11:48:44.392Z,2.25
2023-02-22T11:51:34.879Z,2.10
2023-02-22T11:54:31.888Z,2.20
2023-02-22T11:57:22.468Z,1.83
2023-02-22T12:00:25.933Z,2.13
2023-02-22T12:03:14.655Z,2.00
2023-02-22T12:05:42.653Z,2.35
2023-02-22T12:08:28.384Z,2.47
2023-02-22T12:11:18.790Z,2.67
2023-02-22T12:14:25.546Z,2.08
2023-02-22T12:16:58.406Z,2.20
2023-02-22T12:19:37.964Z,1.58
2023-02-22T12:22:18.150Z,2.10
2023-02-22T12:25:00.708Z,2.55
2023-02-22T12:27:41.145Z,1.60
2023-02-22T12:30:23.591Z,1.35
2023-02-22T12:32:58.995Z,1.88
2023-02-22T12:35:25.641Z,1.65
2023-02-22T12:38:01.830Z,1.23
2023-02-22T12:40:47.054Z,1.92
2023-02-22T12:43:22.599Z,2.10
2023-02-22T12:45:59.109Z,1.65
2023-02-22T12:48:53.985Z,1.50
2023-02-22T12:51:47.757Z,1.35
2023-02-22T12:54:22.074Z,1.10
2023-02-22T12:57:18.071Z,1.92
2023-02-22T12:59:56.070Z,1.70
2023-02-22T13:02:27.437Z,1.58
2023-02-22T13:04:54.877Z,1.70
2023-02-22T13:07:40.849Z,1.55
2023-02-22T13:10:34.347Z,1.00
2023-02-22T13:13:21.663Z,1.25
2023-02-22T13:15:54.727Z,1.33
2023-02-22T13:18:35.026Z,2.20
2023-02-22T13:21:19.993Z,2.10
2023-02-22T13:24:15.640Z,1.52
2023-02-22T13:26:59.173Z,1.77
2023-02-22T13:29:28.823Z,1.67
2023-02-22T13:32:09.081Z,1.52
2023-02-22T13:35:04.106Z,1.95
2023-02-22T13:37:49.834Z,1.77
2023-02-22T13:40:38.157Z,1.25
2023-02-22T13:43:13.809Z,2.33
2023-02-22T13:45:54.343Z,1.80
2023-02-22T13:48:37.938Z,1.80
2023-02-22T13:51:35.708Z,1.88
2023-02-22T13:54:15.320Z,2.25
2023-02-22T13:56:46.760Z,1.70
2023-02-22T13:59:36.576Z,1.70
2023-02-22T14:02:06.903Z,1.77
2023-02-22T14:04:38.198Z,1.20
2023-02-22T14:07:25.940Z,2.55
2023-02-22T14:09:56.212Z,1.90
2023-02-22T14:12:33.593Z,1.63
2023-02-22T14:15:29.714Z,1.50
2023-02-22T14:17:57.457Z,2.15
2023-02-22T14:20:37.211Z,2.50
2023-02-22T14:23:31.472Z,2.58
2023-02-22T14:26:10.212Z,2.00
2023-02-22T14:28:42.460Z,2.10
2023-02-22T14:31:34.563Z,1.38
2023-02-22T14:34:15.575Z,2.35
2023-02-22T14:36:47.653Z,2.25
2023-02-22T14:39:18.035Z,1.65
2023-02-22T14:42:17.801Z,1.92
2023-02-22T14:44:52.241Z,1.60
2023-02-22T14:47:31.195Z,1.60
2023-02-22T14:50:12.940Z,1.52
2023-02-22T14:52:42.512Z,1.67
2023-02-22T14:55:26.249Z,1.75
2023-02-22T14:58:01.561Z,1.52
2023-02-22T15:00:43.030Z,1.98
2023-02-22T15:03:22.384Z,2.20
2023-02-22T15:05:53.291Z,1.70
2023-02-22T15:08:28.106Z,1.45
2023-02-22T15:10:54.880Z,1.83
2023-02-22T15:13:28.199Z,1.98
2023-02-22T15:16:02.159Z,1.45
2023-02-22T15:18:40.699Z,2.05
2023-02-22T15:21:13.081Z,2.40
2023-02-22T15:23:44.610Z,2.88
2023-02-22T15:26:17.524Z,2.92
2023-02-22T15:28:45.334Z,2.97
2023-02-22T15:31:17.646Z,4.03
2023-02-22T15:33:44.847Z,3.60
2023-02-22T15:36:19.711Z,3.80
2023-02-22T15:38:51.850Z,4.63
2023-02-22T15:41:29.401Z,3.95
2023-02-22T15:44:23.296Z,4.45
2023-02-22T15:46:51.105Z,4.05
2023-02-22T15:49:20.827Z,4.65
2023-02-22T15:52:01.659Z,4.78
2023-02-22T15:54:28.758Z,5.53
2023-02-22T15:56:56.541Z,5.75
2023-02-22T15:59:29.658Z,5.38
2023-02-22T16:01:59.391Z,6.25
2023-02-22T16:04:29.962Z,6.93
2023-02-22T16:07:17.078Z,7.10
2023-02-22T16:09:49.492Z,6.63
2023-02-22T16:12:22.477Z,6.57
2023-02-22T16:14:50.054Z,6.88
2023-02-22T16:17:30.582Z,7.82
2023-02-22T16:19:59.957Z,7.25
2023-02-22T16:22:34.369Z,7.78
2023-02-22T16:25:19.742Z,7.82
2023-02-22T16:27:59.844Z,7.57
2023-02-22T16:30:29.247Z,8.38
2023-02-22T16:32:57.330Z,8.75
2023-02-22T16:35:29.232Z,7.88
2023-02-22T16:37:58.628Z,8.45
2023-02-22T16:40:39.106Z,9.68
2023-02-22T16:43:17.281Z,9.77
2023-02-22T16:45:44.373Z,10.68
2023-02-22T16:48:20.834Z,9.63
2023-02-22T16:50:53.482Z,9.65
2023-02-22T16:53:23.768Z,11.02
2023-02-22T16:55:57.456Z,10.60
2023-02-22T16:58:29.333Z,10.52
2023-02-22T17:03:25.843Z,9.23
2023-02-22T17:05:53.396Z,10.25
2023-02-22T17:08:20.254Z,11.07
2023-02-22T17:10:47.281Z,11.63
2023-02-22T17:13:23.595Z,10.63
2023-02-22T17:15:52.112Z,10.88
2023-02-22T17:18:23.142Z,10.52
2023-02-22T17:20:51.489Z,11.10
2023-02-22T17:23:19.199Z,10.73
2023-02-22T17:25:49.079Z,11.45
2023-02-22T17:28:17.103Z,11.82
2023-02-22T17:30:45.326Z,12.20
2023-02-22T17:33:17.084Z,11.80
2023-02-22T17:35:44.642Z,12.32
2023-02-22T17:38:11.396Z,12.48
2023-02-22T17:40:39.688Z,12.25
2023-02-22T17:43:10.947Z,11.82
2023-02-22T17:45:38.891Z,12.90
2023-02-22T17:48:06.057Z,11.95
2023-02-22T17:50:33.564Z,12.75
2023-02-22T17:53:00.675Z,12.88
2023-02-22T17:55:27.810Z,12.77
2023-02-22T17:57:58.280Z,13.48
2023-02-22T18:00:33.222Z,13.27
2023-02-22T18:03:13.255Z,13.68
2023-02-22T18:05:46.290Z,12.45
2023-02-22T18:08:14.445Z,13.45
2023-02-22T18:10:45.130Z,14.73
2023-02-22T18:13:18.629Z,14.02
2023-02-22T18:15:47.085Z,13.95
2023-02-22T18:18:14.885Z,13.13
2023-02-22T18:20:51.565Z,13.65
2023-02-22T18:23:21.105Z,13.90
2023-02-22T18:26:03.826Z,13.38
2023-02-22T18:28:36.639Z,12.65
2023-02-22T18:31:14.760Z,12.75
2023-02-22T18:36:14.354Z,13.13
2023-02-22T18:38:42.834Z,13.10
2023-02-22T18:41:13.086Z,12.77
2023-02-22T18:43:40.658Z,12.43
2023-02-22T18:46:18.642Z,12.48
2023-02-22T18:48:52.861Z,11.88
2023-02-22T18:51:19.636Z,12.88
2023-02-22T18:53:48.061Z,12.55
2023-02-22T18:56:22.257Z,11.77
2023-02-22T18:58:54.355Z,13.23
2023-02-22T19:01:22.101Z,11.63
2023-02-22T19:03:49.001Z,11.10
2023-02-22T19:06:17.119Z,12.50
2023-02-22T19:08:45.511Z,11.43
2023-02-22T19:11:17.984Z,10.80
2023-02-22T19:13:49.812Z,11.02
2023-02-22T19:16:22.019Z,10.60
2023-02-22T19:18:50.825Z,10.88
2023-02-22T19:21:18.405Z,10.57
2023-02-22T19:23:46.020Z,10.52
2023-02-22T19:26:18.606Z,10.43
2023-02-22T19:28:46.628Z,10.25
2023-02-22T19:31:23.210Z,9.30
2023-02-22T19:33:53.145Z,10.18
2023-02-22T19:36:23.126Z,10.05
2023-02-22T19:38:50.648Z,9.07
2023-02-22T19:41:22.934Z,9.43
2023-02-22T19:43:52.387Z,8.85
2023-02-22T19:46:21.368Z,8.52
2023-02-22T19:48:52.637Z,8.82
2023-02-22T19:51:24.629Z,8.52
2023-02-22T19:56:27.002Z,7.90
2023-02-22T19:58:55.800Z,8.40
2023-02-22T20:01:29.846Z,6.78
2023-02-22T20:04:09.398Z,6.90
2023-02-22T20:06:41.648Z,6.38
2023-02-22T20:09:13.006Z,6.70
2023-02-22T20:11:40.189Z,5.75
2023-02-22T20:14:06.994Z,6.35
2023-02-22T20:16:35.279Z,5.25
2023-02-22T20:19:02.477Z,5.82
2023-02-22T20:21:31.969Z,5.95
2023-02-22T20:24:00.605Z,6.70
2023-02-22T20:26:29.772Z,6.03
2023-02-22T20:28:56.944Z,6.82
2023-02-22T20:31:23.723Z,5.93
2023-02-22T20:33:56.400Z,5.78
2023-02-22T20:36:23.904Z,6.95
2023-02-22T20:38:55.745Z,5.75
2023-02-22T20:41:34.329Z,5.95
2023-02-22T20:44:03.036Z,6.00
2023-02-22T20:46:31.667Z,5.85
2023-02-22T20:49:01.079Z,6.15
2023-02-22T20:51:29.632Z,5.68
2023-02-22T20:54:01.013Z,5.20
2023-02-22T20:56:30.318Z,6.22
2023-02-22T20:58:59.007Z,5.03
2023-02-22T21:01:26.274Z,5.30
2023-02-22T21:03:53.356Z,5.47
2023-02-22T21:06:21.714Z,5.70
2023-02-22T21:08:54.490Z,5.75
2023-02-22T21:11:22.812Z,5.88
2023-02-22T21:13:50.617Z,5.70
2023-02-22T21:16:29.542Z,5.60
2023-02-22T21:18:59.341Z,5.65
2023-02-22T21:21:27.208Z,6.13
2023-02-22T21:23:56.435Z,5.40
2023-02-22T21:26:27.428Z,5.10
2023-02-22T21:28:55.547Z,5.97
2023-02-22T21:31:24.741Z,5.68
2023-02-22T21:33:53.810Z,5.32
2023-02-22T21:36:25.640Z,5.55
2023-02-22T21:39:01.469Z,4.88
2023-02-22T21:41:30.622Z,5.00
2023-02-22T21:43:59.119Z,5.05
2023-02-22T21:46:29.515Z,5.65
2023-02-22T21:48:58.838Z,5.70
2023-02-22T21:51:32.370Z,4.97
2023-02-22T21:54:01.693Z,4.60
2023-02-22T21:56:30.154Z,5.03
2023-02-22T21:59:15.573Z,5.13
2023-02-22T22:01:46.968Z,5.30
2023-02-22T22:04:18.869Z,4.80
2023-02-22T22:06:52.439Z,5.25
2023-02-22T22:09:21.996Z,4.93
2023-02-22T22:11:52.146Z,4.43
2023-02-22T22:14:20.216Z,4.88
2023-02-22T22:16:52.917Z,5.20
2023-02-22T22:19:20.081Z,4.70
2023-02-22T22:21:47.032Z,4.50
2023-02-22T22:24:13.881Z,4.60
2023-02-22T22:26:40.823Z,4.15
2023-02-22T22:29:10.466Z,5.03
2023-02-22T22:31:38.007Z,4.20
2023-02-22T22:34:06.006Z,4.93
2023-02-22T22:36:34.523Z,4.43
2023-02-22T22:39:01.591Z,4.53
2023-02-22T22:41:28.423Z,4.70
2023-02-22T22:43:55.685Z,4.72
2023-02-22T22:46:22.713Z,4.00
2023-02-22T22:48:49.828Z,4.30
2023-02-22T22:51:21.274Z,4.40
2023-02-22T22:53:49.413Z,4.85
2023-02-22T22:56:25.930Z,4.18
2023-02-22T22:58:55.508Z,5.38
2023-02-22T23:01:27.220Z,3.88
2023-02-22T23:04:01.831Z,4.30
2023-02-22T23:06:35.348Z,4.03
2023-02-22T23:09:11.398Z,4.50
2023-02-22T23:11:44.933Z,4.10
2023-02-22T23:14:24.224Z,5.07
2023-02-22T23:17:18.130Z,4.80
2023-02-22T23:19:45.260Z,4.05
2023-02-22T23:22:14.188Z,4.32
2023-02-22T23:24:41.442Z,5.15
2023-02-22T23:27:10.794Z,4.68
2023-02-22T23:29:41.549Z,5.50
2023-02-22T23:32:09.285Z,4.45
2023-02-22T23:34:37.108Z,4.60
2023-02-22T23:37:03.801Z,5.40
2023-02-22T23:39:30.579Z,5.57
2023-02-22T23:42:01.225Z,4.95
2023-02-22T23:44:28.950Z,4.40
2023-02-22T23:46:56.196Z,5.43
2023-02-22T23:49:27.493Z,5.05
2023-02-22T23:51:54.962Z,5.53
2023-02-22T23:54:24.500Z,5.00
2023-02-22T23:56:58.056Z,5.47
2023-02-22T23:59:26.779Z,5.38
